Flight Track Log - Related Links

Times and Time Zones

All times are in EDT time to prevent confusion due to time zone crossing. See the CPT8773 flight status page for this flight to view local times or setup timezone preferences in your user account.

Time Position Orientation Groundspeed Altitude Reporting Facility
EDT Latitude Longitude Course Direction KTS MPH feet Rate Location/Type
Wed 09:43:12 AM 42.9494 -106.5506 308° West 103 119 7,100  Level Salt Lake Center
Wed 09:44:13 AM 42.9661 -106.5756 312° West 101 116 7,500 443 Climbing Denver Center
Wed 09:45:14 AM 42.9928 -106.5969 330° Northwest 97 112 8,000 439 Climbing Denver Center
Wed 09:46:00 AM 43.0888 -106.2762 308° West  Level FlightAware Approximate
Wed 09:46:16 AM 43.0172 -106.6144 332° Northwest 99 114 8,400  Level Denver Center
Wed 09:47:00 AM 43.1130 -106.3186 308° West  Level FlightAware Approximate
Wed 09:47:17 AM 43.0461 -106.6383 329° Northwest 104 120 8,900  Level Denver Center
Wed 09:48:00 AM 43.1372 -106.3610 308° West  Level FlightAware Approximate
Wed 09:48:18 AM 43.0686 -106.6589 326° Northwest 104 120 9,200  Level Denver Center
Wed 09:49:19 AM 43.0917 -106.6792 327° Northwest 104 120 9,600 341 Climbing Denver Center
Wed 09:50:21 AM 43.1206 -106.7022 330° Northwest 107 123 9,900 244 Climbing Denver Center
Wed 09:51:22 AM 43.1481 -106.7231 331° Northwest 115 132 10,100 246 Climbing Denver Center
Wed 09:52:23 AM 43.1806 -106.7469 332° Northwest 119 137 10,400 293 Climbing Denver Center
Wed 09:53:25 AM 43.2089 -106.7667 333° Northwest 120 138 10,700 293 Climbing Denver Center
Wed 09:54:26 AM 43.2378 -106.7881 332° Northwest 122 140 11,000 293 Climbing Denver Center
Wed 09:55:28 AM 43.2706 -106.8133 331° Northwest 123 142 11,300 293 Climbing Denver Center
Wed 09:56:29 AM 43.2994 -106.8317 335° Northwest 121 139 11,600 295 Climbing Denver Center
Wed 09:57:30 AM 43.3347 -106.8542 335° Northwest 123 142 11,900 195 Climbing Denver Center
Wed 09:58:32 AM 43.3647 -106.8736 335° Northwest 125 144 12,000 49 Climbing Denver Center
Wed 09:59:33 AM 43.3992 -106.8956 335° Northwest 133 153 12,000  Level Denver Center
Wed 10:00:34 AM 43.4325 -106.9203 332° Northwest 141 162 12,000  Level Denver Center
Wed 10:01:38 AM 43.4567 -106.9697 304° West 137 158 12,000  Level Salt Lake Center
Wed 10:02:40 AM 43.4808 -107.0217 303° West 142 163 12,000  Level Salt Lake Center
Wed 10:03:41 AM 43.5028 -107.0675 303° West 148 170 12,000  Level Salt Lake Center
Wed 10:04:43 AM 43.5258 -107.1092 307° West 144 166 12,000  Level Salt Lake Center
Wed 10:05:42 AM 43.5486 -107.1497 308° West 142 163 12,000  Level Denver Center
Wed 10:06:43 AM 43.5731 -107.1911 309° West 144 166 12,000  Level Denver Center
Wed 10:07:45 AM 43.6011 -107.2428 307° West 150 173 12,000  Level Denver Center
Wed 10:08:46 AM 43.6281 -107.2944 306° West 150 173 12,000  Level Denver Center
Wed 10:09:48 AM 43.6511 -107.3397 305° West 151 174 12,000  Level Denver Center
Wed 10:10:52 AM 43.6772 -107.3936 304° West 151 174 12,000  Level Salt Lake Center
Wed 10:11:53 AM 43.7014 -107.4386 307° West 152 175 12,000  Level Salt Lake Center
Wed 10:12:55 AM 43.7297 -107.4900 307° West 151 174 12,000  Level Salt Lake Center
Wed 10:13:56 AM 43.7519 -107.5347 305° West 150 173 12,000  Level Salt Lake Center
Wed 10:14:58 AM 43.7747 -107.5792 305° West 148 170 12,000  Level Salt Lake Center
Wed 10:15:59 AM 43.8025 -107.6314 306° West 150 173 12,000  Level Salt Lake Center
Wed 10:17:01 AM 43.8275 -107.6775 307° West 152 175 12,000  Level Salt Lake Center
Wed 10:18:02 AM 43.8567 -107.7322 306° West 156 180 12,000  Level Salt Lake Center
Wed 10:19:04 AM 43.8817 -107.7797 306° West 157 181 12,000  Level Salt Lake Center
Wed 10:20:05 AM 43.9075 -107.8275 307° West 159 183 12,000  Level Salt Lake Center
Wed 10:21:07 AM 43.9383 -107.8839 307° West 162 186 12,000  Level Salt Lake Center
Wed 10:22:08 AM 43.9633 -107.9336 305° West 163 188 12,000  Level Salt Lake Center
Wed 10:23:10 AM 43.9919 -107.9897 305° West 162 186 12,000  Level Salt Lake Center
Wed 10:24:11 AM 44.0164 -108.0381 305° West 160 184 12,000  Level Salt Lake Center
Wed 10:25:13 AM 44.0411 -108.0864 305° West 160 184 12,000  Level Salt Lake Center
Wed 10:26:15 AM 44.0700 -108.1408 306° West 159 183 12,000  Level Salt Lake Center
Wed 10:27:16 AM 44.0939 -108.1872 306° West 156 180 12,000  Level Salt Lake Center
Wed 10:28:18 AM 44.1231 -108.2414 307° West 156 180 12,000  Level Salt Lake Center
Wed 10:29:20 AM 44.1469 -108.2886 305° West 156 180 12,000  Level Salt Lake Center
Wed 10:30:21 AM 44.1736 -108.3439 304° West 155 178 12,000 -98 Level Salt Lake Center
Wed 10:31:23 AM 44.1997 -108.3928 307° West 158 182 11,800 -145 Descending Salt Lake Center
Wed 10:32:25 AM 44.2272 -108.4444 307° West 164 189 11,700 -146 Descending Salt Lake Center
Wed 10:33:26 AM 44.2581 -108.5058 305° West 170 196 11,500 -293 Descending Salt Lake Center
Wed 10:34:28 AM 44.2850 -108.5589 305° West 172 198 11,100 -435 Descending Salt Lake Center
Wed 10:35:30 AM 44.3194 -108.6242 306° West 179 206 10,600 -435 Descending Salt Lake Center
Wed 10:36:32 AM 44.3478 -108.6811 305° West 183 211 10,200 -341 Descending Salt Lake Center
Wed 10:37:33 AM 44.3794 -108.7425 306° West 184 212 9,900 -295 Descending Salt Lake Center

Login

Don't have an account? Register now (free) for customized features, flight alerts, and more!